sensor_id;sensor_type;location;lat;lon;timestamp;pressure;altitude;pressure_sealevel;temperature;humidity
10732;BME280;5417;42.686;23.244;2022-09-28T00:01:43;93306.09;;;14.65;84.67
10732;BME280;5417;42.686;23.244;2022-09-28T00:04:11;93320.28;;;14.70;85.16
10732;BME280;5417;42.686;23.244;2022-09-28T00:06:38;93319.81;;;14.67;84.85
10732;BME280;5417;42.686;23.244;2022-09-28T00:09:06;93312.50;;;14.62;84.77
10732;BME280;5417;42.686;23.244;2022-09-28T00:11:33;93312.84;;;14.59;84.15
10732;BME280;5417;42.686;23.244;2022-09-28T00:14:01;93309.59;;;14.57;84.15
10732;BME280;5417;42.686;23.244;2022-09-28T00:16:32;93311.38;;;14.57;84.46
10732;BME280;5417;42.686;23.244;2022-09-28T00:19:00;93302.25;;;14.52;84.30
10732;BME280;5417;42.686;23.244;2022-09-28T00:21:28;93300.59;;;14.51;84.36
10732;BME280;5417;42.686;23.244;2022-09-28T00:23:57;93311.72;;;14.53;84.64
10732;BME280;5417;42.686;23.244;2022-09-28T00:26:46;93306.47;;;14.53;84.96
10732;BME280;5417;42.686;23.244;2022-09-28T00:29:20;93303.88;;;14.53;84.96
10732;BME280;5417;42.686;23.244;2022-09-28T00:31:47;93303.06;;;14.53;85.01
10732;BME280;5417;42.686;23.244;2022-09-28T00:34:16;93294.91;;;14.48;84.00
10732;BME280;5417;42.686;23.244;2022-09-28T00:36:44;93303.50;;;14.57;83.64
10732;BME280;5417;42.686;23.244;2022-09-28T00:39:13;93285.59;;;14.45;83.69
10732;BME280;5417;42.686;23.244;2022-09-28T00:41:41;93299.78;;;14.51;83.88
10732;BME280;5417;42.686;23.244;2022-09-28T00:44:37;93302.56;;;14.58;83.78
10732;BME280;5417;42.686;23.244;2022-09-28T00:50:15;93300.91;;;14.57;83.08
10732;BME280;5417;42.686;23.244;2022-09-28T00:52:48;93304.22;;;14.50;83.07
10732;BME280;5417;42.686;23.244;2022-09-28T00:55:19;93298.44;;;14.55;83.35
10732;BME280;5417;42.686;23.244;2022-09-28T00:57:51;93293.09;;;14.48;83.11
10732;BME280;5417;42.686;23.244;2022-09-28T01:00:21;93290.84;;;14.45;83.26
10732;BME280;5417;42.686;23.244;2022-09-28T01:05:30;93297.88;;;14.45;83.41
10732;BME280;5417;42.686;23.244;2022-09-28T01:08:00;93288.91;;;14.39;84.01
10732;BME280;5417;42.686;23.244;2022-09-28T01:10:28;93294.28;;;14.46;83.51
10732;BME280;5417;42.686;23.244;2022-09-28T01:12:56;93292.94;;;14.50;84.35
10732;BME280;5417;42.686;23.244;2022-09-28T01:15:27;93286.28;;;14.39;83.89
10732;BME280;5417;42.686;23.244;2022-09-28T01:18:02;93305.38;;;14.48;83.56
10732;BME280;5417;42.686;23.244;2022-09-28T01:20:36;93306.56;;;14.45;83.51
10732;BME280;5417;42.686;23.244;2022-09-28T01:23:37;93310.81;;;14.38;83.62
10732;BME280;5417;42.686;23.244;2022-09-28T01:26:43;93303.06;;;14.53;82.90
10732;BME280;5417;42.686;23.244;2022-09-28T01:29:20;93297.47;;;14.56;82.59
10732;BME280;5417;42.686;23.244;2022-09-28T01:34:38;93311.81;;;14.37;82.68
10732;BME280;5417;42.686;23.244;2022-09-28T01:37:09;93313.50;;;14.30;83.36
10732;BME280;5417;42.686;23.244;2022-09-28T01:39:40;93308.25;;;14.30;82.84
10732;BME280;5417;42.686;23.244;2022-09-28T01:42:13;93311.00;;;14.37;82.96
10732;BME280;5417;42.686;23.244;2022-09-28T01:44:44;93300.75;;;14.27;82.88
10732;BME280;5417;42.686;23.244;2022-09-28T01:47:14;93318.31;;;14.18;83.13
10732;BME280;5417;42.686;23.244;2022-09-28T01:49:46;93307.81;;;14.27;83.63
10732;BME280;5417;42.686;23.244;2022-09-28T01:52:17;93317.00;;;14.23;84.06
10732;BME280;5417;42.686;23.244;2022-09-28T01:54:53;93305.19;;;14.27;83.60
10732;BME280;5417;42.686;23.244;2022-09-28T01:57:25;93313.25;;;14.17;83.09
10732;BME280;5417;42.686;23.244;2022-09-28T01:59:59;93332.56;;;14.16;83.58
10732;BME280;5417;42.686;23.244;2022-09-28T02:02:31;93322.78;;;14.10;83.33
10732;BME280;5417;42.686;23.244;2022-09-28T02:05:04;93321.63;;;14.12;83.95
10732;BME280;5417;42.686;23.244;2022-09-28T02:07:37;93322.78;;;14.10;83.57
10732;BME280;5417;42.686;23.244;2022-09-28T02:10:08;93320.81;;;14.12;84.28
10732;BME280;5417;42.686;23.244;2022-09-28T02:12:39;93313.00;;;14.04;83.45
10732;BME280;5417;42.686;23.244;2022-09-28T02:15:11;93326.25;;;14.02;83.42
10732;BME280;5417;42.686;23.244;2022-09-28T02:17:40;93321.00;;;14.02;83.38
10732;BME280;5417;42.686;23.244;2022-09-28T02:20:07;93325.94;;;14.05;83.15
10732;BME280;5417;42.686;23.244;2022-09-28T02:22:38;93320.19;;;14.02;83.17
10732;BME280;5417;42.686;23.244;2022-09-28T02:25:10;93305.34;;;13.94;83.55
10732;BME280;5417;42.686;23.244;2022-09-28T02:27:44;93314.44;;;14.14;83.54
10732;BME280;5417;42.686;23.244;2022-09-28T02:30:14;93313.72;;;14.20;83.11
10732;BME280;5417;42.686;23.244;2022-09-28T02:32:46;93316.94;;;14.00;83.30
10732;BME280;5417;42.686;23.244;2022-09-28T02:35:16;93323.84;;;13.93;83.72
10732;BME280;5417;42.686;23.244;2022-09-28T02:37:44;93317.84;;;13.84;83.34
10732;BME280;5417;42.686;23.244;2022-09-28T02:40:13;93309.53;;;13.80;83.40
10732;BME280;5417;42.686;23.244;2022-09-28T02:42:51;93311.09;;;13.89;83.05
10732;BME280;5417;42.686;23.244;2022-09-28T02:45:33;93303.34;;;13.73;82.91
10732;BME280;5417;42.686;23.244;2022-09-28T02:48:14;93322.47;;;13.74;83.43
10732;BME280;5417;42.686;23.244;2022-09-28T02:50:52;93328.69;;;13.73;83.91
10732;BME280;5417;42.686;23.244;2022-09-28T02:56:24;93324.59;;;13.70;83.93
10732;BME280;5417;42.686;23.244;2022-09-28T02:59:05;93326.41;;;13.70;84.14
10732;BME280;5417;42.686;23.244;2022-09-28T03:01:42;93338.19;;;13.66;83.83
10732;BME280;5417;42.686;23.244;2022-09-28T03:04:17;93326.19;;;13.79;83.12
10732;BME280;5417;42.686;23.244;2022-09-28T03:06:52;93328.69;;;13.73;83.37
10732;BME280;5417;42.686;23.244;2022-09-28T03:09:22;93336.41;;;13.66;83.67
10732;BME280;5417;42.686;23.244;2022-09-28T03:11:54;93345.34;;;13.72;83.31
10732;BME280;5417;42.686;23.244;2022-09-28T03:14:24;93347.97;;;13.72;83.55
10732;BME280;5417;42.686;23.244;2022-09-28T03:16:51;93350.59;;;13.72;84.11
10732;BME280;5417;42.686;23.244;2022-09-28T03:19:21;93354.66;;;13.74;84.42
10732;BME280;5417;42.686;23.244;2022-09-28T03:21:49;93345.31;;;13.80;84.87
10732;BME280;5417;42.686;23.244;2022-09-28T03:24:16;93355.44;;;13.83;85.08
10732;BME280;5417;42.686;23.244;2022-09-28T03:26:43;93371.44;;;13.88;85.71
10732;BME280;5417;42.686;23.244;2022-09-28T03:29:10;93363.59;;;13.88;85.39
10732;BME280;5417;42.686;23.244;2022-09-28T03:31:38;93366.03;;;13.89;85.37
10732;BME280;5417;42.686;23.244;2022-09-28T03:35:29;93365.88;;;13.91;85.15
10732;BME280;5417;42.686;23.244;2022-09-28T03:37:27;93360.91;;;14.04;85.22
10732;BME280;5417;42.686;23.244;2022-09-28T03:39:54;93361.59;;;13.98;84.73
10732;BME280;5417;42.686;23.244;2022-09-28T03:42:21;93359.13;;;13.97;85.49
10732;BME280;5417;42.686;23.244;2022-09-28T03:44:48;93362.56;;;13.97;85.39
10732;BME280;5417;42.686;23.244;2022-09-28T03:47:16;93355.53;;;13.98;85.70
10732;BME280;5417;42.686;23.244;2022-09-28T03:49:43;93360.59;;;13.99;85.43
10732;BME280;5417;42.686;23.244;2022-09-28T03:52:11;93366.00;;;13.98;85.83
10732;BME280;5417;42.686;23.244;2022-09-28T03:54:38;93351.56;;;14.10;85.35
10732;BME280;5417;42.686;23.244;2022-09-28T03:57:05;93373.16;;;14.12;85.32
10732;BME280;5417;42.686;23.244;2022-09-28T03:59:32;93364.28;;;14.21;83.89
10732;BME280;5417;42.686;23.244;2022-09-28T04:02:02;93366.47;;;14.09;84.65
10732;BME280;5417;42.686;23.244;2022-09-28T04:04:30;93360.78;;;13.98;85.13
10732;BME280;5417;42.686;23.244;2022-09-28T04:06:59;93366.00;;;13.98;85.93
10732;BME280;5417;42.686;23.244;2022-09-28T04:09:26;93367.13;;;14.03;85.75
10732;BME280;5417;42.686;23.244;2022-09-28T04:11:53;93360.59;;;14.07;86.09
10732;BME280;5417;42.686;23.244;2022-09-28T04:14:20;93353.22;;;14.11;85.16
10732;BME280;5417;42.686;23.244;2022-09-28T04:16:52;93367.56;;;14.15;85.19
10732;BME280;5417;42.686;23.244;2022-09-28T04:19:21;93359.84;;;14.21;85.22
10732;BME280;5417;42.686;23.244;2022-09-28T04:21:52;93373.28;;;14.18;85.52
10732;BME280;5417;42.686;23.244;2022-09-28T04:24:23;93367.41;;;14.16;86.15
10732;BME280;5417;42.686;23.244;2022-09-28T04:26:51;93362.94;;;14.25;85.01
10732;BME280;5417;42.686;23.244;2022-09-28T04:29:37;93370.03;;;14.39;84.75
10732;BME280;5417;42.686;23.244;2022-09-28T04:32:10;93365.50;;;14.33;84.77
10732;BME280;5417;42.686;23.244;2022-09-28T04:35:25;93356.75;;;14.49;85.78
10732;BME280;5417;42.686;23.244;2022-09-28T04:37:48;93365.06;;;14.98;86.56
10732;BME280;5417;42.686;23.244;2022-09-28T04:40:17;93361.91;;;15.63;85.10
10732;BME280;5417;42.686;23.244;2022-09-28T04:43:30;93366.63;;;16.33;80.86
10732;BME280;5417;42.686;23.244;2022-09-28T04:45:57;93351.22;;;17.30;74.60
10732;BME280;5417;42.686;23.244;2022-09-28T04:48:36;93356.81;;;18.18;72.75
10732;BME280;5417;42.686;23.244;2022-09-28T04:51:09;93344.72;;;18.98;69.88
10732;BME280;5417;42.686;23.244;2022-09-28T04:53:37;93343.09;;;19.69;64.37
10732;BME280;5417;42.686;23.244;2022-09-28T04:56:05;93348.63;;;20.39;61.10
10732;BME280;5417;42.686;23.244;2022-09-28T05:01:23;93364.13;;;20.22;61.29
10732;BME280;5417;42.686;23.244;2022-09-28T05:04:06;93344.72;;;19.77;61.22
10732;BME280;5417;42.686;23.244;2022-09-28T05:10:02;93353.38;;;18.65;64.77
10732;BME280;5417;42.686;23.244;2022-09-28T05:15:18;93360.41;;;18.51;68.20
10732;BME280;5417;42.686;23.244;2022-09-28T05:17:55;93359.34;;;19.13;66.63
10732;BME280;5417;42.686;23.244;2022-09-28T05:20:22;93355.69;;;19.67;63.48
10732;BME280;5417;42.686;23.244;2022-09-28T05:22:48;93355.47;;;19.75;63.18
10732;BME280;5417;42.686;23.244;2022-09-28T05:25:17;93342.22;;;20.08;64.35
10732;BME280;5417;42.686;23.244;2022-09-28T05:27:45;93348.25;;;20.73;60.44
10732;BME280;5417;42.686;23.244;2022-09-28T05:30:16;93347.13;;;21.76;57.57
10732;BME280;5417;42.686;23.244;2022-09-28T05:32:43;93348.63;;;22.15;54.56
10732;BME280;5417;42.686;23.244;2022-09-28T05:35:13;93346.91;;;23.05;52.24
10732;BME280;5417;42.686;23.244;2022-09-28T05:37:40;93354.91;;;23.28;51.25
10732;BME280;5417;42.686;23.244;2022-09-28T05:40:08;93350.41;;;23.71;50.35
10732;BME280;5417;42.686;23.244;2022-09-28T05:42:36;93343.69;;;24.03;49.18
10732;BME280;5417;42.686;23.244;2022-09-28T05:45:03;93354.66;;;24.30;49.33
10732;BME280;5417;42.686;23.244;2022-09-28T05:49:57;93347.56;;;24.99;nan
10732;BME280;5417;42.686;23.244;2022-09-28T05:52:24;93337.94;;;25.27;nan
10732;BME280;5417;42.686;23.244;2022-09-28T05:54:51;93336.97;;;25.33;nan
10732;BME280;5417;42.686;23.244;2022-09-28T05:57:17;93336.44;;;25.64;nan
10732;BME280;5417;42.686;23.244;2022-09-28T05:59:46;93333.56;;;26.21;nan
10732;BME280;5417;42.686;23.244;2022-09-28T06:02:13;93331.19;;;25.53;nan
10732;BME280;5417;42.686;23.244;2022-09-28T06:04:39;93343.00;;;24.71;nan
10732;BME280;5417;42.686;23.244;2022-09-28T06:07:06;93343.34;;;23.65;nan
10732;BME280;5417;42.686;23.244;2022-09-28T06:09:33;93355.63;;;22.94;nan
10732;BME280;5417;42.686;23.244;2022-09-28T06:12:00;93349.19;;;22.35;nan
10732;BME280;5417;42.686;23.244;2022-09-28T06:14:27;93352.81;;;21.79;nan
10732;BME280;5417;42.686;23.244;2022-09-28T06:16:55;93370.88;;;21.39;nan
10732;BME280;5417;42.686;23.244;2022-09-28T06:19:22;93381.78;;;20.86;nan
10732;BME280;5417;42.686;23.244;2022-09-28T06:21:49;93380.56;;;20.44;nan
10732;BME280;5417;42.686;23.244;2022-09-28T06:24:16;93376.38;;;19.97;nan
10732;BME280;5417;42.686;23.244;2022-09-28T06:26:43;93385.34;;;19.89;nan
10732;BME280;5417;42.686;23.244;2022-09-28T06:29:10;93382.94;;;19.81;nan
10732;BME280;5417;42.686;23.244;2022-09-28T06:31:38;93376.22;;;19.45;nan
10732;BME280;5417;42.686;23.244;2022-09-28T06:34:07;93383.28;;;19.05;nan
10732;BME280;5417;42.686;23.244;2022-09-28T06:36:35;93376.75;;;18.75;nan
10732;BME280;5417;42.686;23.244;2022-09-28T06:39:02;93384.13;;;18.58;nan
10732;BME280;5417;42.686;23.244;2022-09-28T06:41:29;93385.66;;;18.26;nan
10732;BME280;5417;42.686;23.244;2022-09-28T06:43:56;93395.22;;;17.99;nan
10732;BME280;5417;42.686;23.244;2022-09-28T06:46:23;93395.78;;;17.88;nan
10732;BME280;5417;42.686;23.244;2022-09-28T06:48:50;93396.13;;;17.78;nan
10732;BME280;5417;42.686;23.244;2022-09-28T06:51:18;93387.28;;;17.64;nan
10732;BME280;5417;42.686;23.244;2022-09-28T06:53:45;93381.34;;;17.77;nan
10732;BME280;5417;42.686;23.244;2022-09-28T06:56:12;93399.69;;;17.98;nan
10732;BME280;5417;42.686;23.244;2022-09-28T06:59:00;93400.22;;;17.87;nan
10732;BME280;5417;42.686;23.244;2022-09-28T07:03:55;93398.34;;;18.16;nan
10732;BME280;5417;42.686;23.244;2022-09-28T07:04:49;93411.78;;;18.21;nan
10732;BME280;5417;42.686;23.244;2022-09-28T07:07:17;93406.31;;;18.22;nan
10732;BME280;5417;42.686;23.244;2022-09-28T07:09:44;93408.78;;;18.31;nan
10732;BME280;5417;42.686;23.244;2022-09-28T07:12:10;93398.03;;;18.32;nan
10732;BME280;5417;42.686;23.244;2022-09-28T07:14:37;93406.19;;;18.44;nan
10732;BME280;5417;42.686;23.244;2022-09-28T07:17:05;93410.22;;;18.40;nan
10732;BME280;5417;42.686;23.244;2022-09-28T07:19:33;93415.09;;;18.43;nan
10732;BME280;5417;42.686;23.244;2022-09-28T07:22:00;93413.09;;;18.51;nan
10732;BME280;5417;42.686;23.244;2022-09-28T07:24:29;93415.53;;;18.53;nan
10732;BME280;5417;42.686;23.244;2022-09-28T07:26:55;93416.78;;;18.57;nan
10732;BME280;5417;42.686;23.244;2022-09-28T07:29:23;93417.97;;;18.54;nan
10732;BME280;5417;42.686;23.244;2022-09-28T07:32:02;93410.88;;;18.48;nan
10732;BME280;5417;42.686;23.244;2022-09-28T07:34:29;93419.78;;;18.47;nan
10732;BME280;5417;42.686;23.244;2022-09-28T07:36:56;93410.44;;;18.38;nan
10732;BME280;5417;42.686;23.244;2022-09-28T07:39:44;93417.28;;;18.33;nan
10732;BME280;5417;42.686;23.244;2022-09-28T07:42:37;93422.13;;;18.29;nan
10732;BME280;5417;42.686;23.244;2022-09-28T07:45:04;93418.69;;;18.28;nan
10732;BME280;5417;42.686;23.244;2022-09-28T07:47:31;93413.81;;;18.25;nan
10732;BME280;5417;42.686;23.244;2022-09-28T07:49:58;93422.53;;;18.26;nan
10732;BME280;5417;42.686;23.244;2022-09-28T07:52:25;93417.69;;;18.29;nan
10732;BME280;5417;42.686;23.244;2022-09-28T07:54:53;93420.97;;;18.38;nan
10732;BME280;5417;42.686;23.244;2022-09-28T07:57:20;93428.00;;;18.24;nan
10732;BME280;5417;42.686;23.244;2022-09-28T07:59:49;93425.56;;;18.23;nan
10732;BME280;5417;42.686;23.244;2022-09-28T08:02:18;93410.63;;;18.37;nan
10732;BME280;5417;42.686;23.244;2022-09-28T08:04:45;93419.94;;;18.39;nan
10732;BME280;5417;42.686;23.244;2022-09-28T08:07:22;93419.22;;;18.58;nan
10732;BME280;5417;42.686;23.244;2022-09-28T08:09:50;93411.22;;;18.73;nan
10732;BME280;5417;42.686;23.244;2022-09-28T08:12:17;93424.03;;;18.96;nan
10732;BME280;5417;42.686;23.244;2022-09-28T08:14:45;93416.91;;;18.77;nan
10732;BME280;5417;42.686;23.244;2022-09-28T08:17:15;93420.03;;;18.59;nan
10732;BME280;5417;42.686;23.244;2022-09-28T08:19:41;93432.03;;;18.62;nan
10732;BME280;5417;42.686;23.244;2022-09-28T08:22:26;93423.22;;;18.48;nan
10732;BME280;5417;42.686;23.244;2022-09-28T08:25:17;93425.47;;;18.51;nan
10732;BME280;5417;42.686;23.244;2022-09-28T08:27:44;93418.53;;;18.84;nan
10732;BME280;5417;42.686;23.244;2022-09-28T08:30:11;93427.56;;;19.30;nan
10732;BME280;5417;42.686;23.244;2022-09-28T08:32:46;93434.47;;;19.44;nan
10732;BME280;5417;42.686;23.244;2022-09-28T08:35:14;93410.53;;;19.45;nan
10732;BME280;5417;42.686;23.244;2022-09-28T08:37:41;93416.63;;;19.66;nan
10732;BME280;5417;42.686;23.244;2022-09-28T08:40:14;93410.53;;;19.92;nan
10732;BME280;5417;42.686;23.244;2022-09-28T08:42:43;93428.22;;;19.91;nan
10732;BME280;5417;42.686;23.244;2022-09-28T08:45:12;93409.47;;;20.12;nan
10732;BME280;5417;42.686;23.244;2022-09-28T08:47:47;93416.16;;;20.15;nan
10732;BME280;5417;42.686;23.244;2022-09-28T08:50:35;93405.78;;;20.33;nan
10732;BME280;5417;42.686;23.244;2022-09-28T08:53:27;93414.31;;;20.35;nan
10732;BME280;5417;42.686;23.244;2022-09-28T08:55:58;93398.88;;;20.32;nan
10732;BME280;5417;42.686;23.244;2022-09-28T08:58:31;93415.88;;;20.56;nan
10732;BME280;5417;42.686;23.244;2022-09-28T09:00:59;93415.16;;;20.80;nan
10732;BME280;5417;42.686;23.244;2022-09-28T09:03:32;93409.56;;;21.02;nan
10732;BME280;5417;42.686;23.244;2022-09-28T09:06:08;93411.47;;;21.26;nan
10732;BME280;5417;42.686;23.244;2022-09-28T09:08:59;93399.38;;;21.44;nan
10732;BME280;5417;42.686;23.244;2022-09-28T09:12:56;93396.50;;;21.45;nan
10732;BME280;5417;42.686;23.244;2022-09-28T09:15:09;93398.13;;;21.46;nan
10732;BME280;5417;42.686;23.244;2022-09-28T09:17:45;93389.25;;;21.59;nan
10732;BME280;5417;42.686;23.244;2022-09-28T09:20:23;93384.16;;;21.82;nan
10732;BME280;5417;42.686;23.244;2022-09-28T09:22:57;93361.72;;;21.85;nan
10732;BME280;5417;42.686;23.244;2022-09-28T09:25:27;93380.03;;;22.11;nan
10732;BME280;5417;42.686;23.244;2022-09-28T09:28:23;93379.13;;;21.99;nan
10732;BME280;5417;42.686;23.244;2022-09-28T09:31:05;93379.34;;;21.97;nan
10732;BME280;5417;42.686;23.244;2022-09-28T09:34:12;93377.69;;;22.21;nan
10732;BME280;5417;42.686;23.244;2022-09-28T09:37:01;93369.09;;;22.44;nan
10732;BME280;5417;42.686;23.244;2022-09-28T09:39:39;93368.13;;;22.39;nan
10732;BME280;5417;42.686;23.244;2022-09-28T09:42:23;93374.53;;;22.49;nan
10732;BME280;5417;42.686;23.244;2022-09-28T09:45:08;93368.41;;;22.67;nan
10732;BME280;5417;42.686;23.244;2022-09-28T09:47:43;93356.38;;;22.83;nan
10732;BME280;5417;42.686;23.244;2022-09-28T09:50:23;93364.19;;;22.96;nan
10732;BME280;5417;42.686;23.244;2022-09-28T09:52:58;93351.63;;;23.03;nan
10732;BME280;5417;42.686;23.244;2022-09-28T09:55:29;93364.13;;;23.14;nan
10732;BME280;5417;42.686;23.244;2022-09-28T09:58:03;93372.69;;;23.28;nan
10732;BME280;5417;42.686;23.244;2022-09-28T10:00:30;93352.03;;;23.30;nan
10732;BME280;5417;42.686;23.244;2022-09-28T10:02:58;93369.09;;;23.22;nan
10732;BME280;5417;42.686;23.244;2022-09-28T10:05:30;93368.38;;;23.15;nan
10732;BME280;5417;42.686;23.244;2022-09-28T10:08:02;93365.75;;;23.27;nan
10732;BME280;5417;42.686;23.244;2022-09-28T10:10:33;93365.31;;;23.30;nan
10732;BME280;5417;42.686;23.244;2022-09-28T10:13:01;93353.66;;;23.31;nan
10732;BME280;5417;42.686;23.244;2022-09-28T10:15:31;93370.06;;;23.40;nan
10732;BME280;5417;42.686;23.244;2022-09-28T10:18:03;93335.91;;;23.43;nan
10732;BME280;5417;42.686;23.244;2022-09-28T10:20:33;93347.19;;;23.27;nan
10732;BME280;5417;42.686;23.244;2022-09-28T10:23:05;93346.00;;;23.11;nan
10732;BME280;5417;42.686;23.244;2022-09-28T10:25:35;93348.84;;;22.98;nan
10732;BME280;5417;42.686;23.244;2022-09-28T10:28:05;93324.72;;;23.00;nan
10732;BME280;5417;42.686;23.244;2022-09-28T10:30:36;93324.16;;;22.97;nan
10732;BME280;5417;42.686;23.244;2022-09-28T10:33:28;93341.03;;;23.15;nan
10732;BME280;5417;42.686;23.244;2022-09-28T10:35:55;93338.50;;;23.20;nan
10732;BME280;5417;42.686;23.244;2022-09-28T10:38:27;93338.97;;;23.28;nan
10732;BME280;5417;42.686;23.244;2022-09-28T10:40:58;93323.28;;;23.39;nan
10732;BME280;5417;42.686;23.244;2022-09-28T10:43:26;93314.69;;;23.55;nan
10732;BME280;5417;42.686;23.244;2022-09-28T10:46:05;93313.19;;;23.71;nan
10732;BME280;5417;42.686;23.244;2022-09-28T10:48:46;93331.69;;;24.01;nan
10732;BME280;5417;42.686;23.244;2022-09-28T10:51:15;93312.13;;;24.07;nan
10732;BME280;5417;42.686;23.244;2022-09-28T10:53:57;93313.97;;;24.18;nan
10732;BME280;5417;42.686;23.244;2022-09-28T10:56:27;93305.22;;;24.06;nan
10732;BME280;5417;42.686;23.244;2022-09-28T10:58:54;93296.44;;;24.05;nan
10732;BME280;5417;42.686;23.244;2022-09-28T11:01:24;93303.47;;;24.00;nan
10732;BME280;5417;42.686;23.244;2022-09-28T11:03:54;93311.56;;;23.81;nan
10732;BME280;5417;42.686;23.244;2022-09-28T11:06:24;93304.53;;;23.64;nan
10732;BME280;5417;42.686;23.244;2022-09-28T11:08:56;93312.34;;;23.47;nan
10732;BME280;5417;42.686;23.244;2022-09-28T11:11:23;93294.31;;;23.25;nan
10732;BME280;5417;42.686;23.244;2022-09-28T11:13:52;93303.41;;;23.18;nan
10732;BME280;5417;42.686;23.244;2022-09-28T11:16:23;93286.09;;;23.15;nan
10732;BME280;5417;42.686;23.244;2022-09-28T11:18:50;93280.56;;;23.17;nan
10732;BME280;5417;42.686;23.244;2022-09-28T11:21:21;93282.41;;;23.16;nan
10732;BME280;5417;42.686;23.244;2022-09-28T11:23:58;93278.00;;;23.10;nan
10732;BME280;5417;42.686;23.244;2022-09-28T11:26:27;93275.22;;;23.05;nan
10732;BME280;5417;42.686;23.244;2022-09-28T11:28:59;93273.03;;;23.02;nan
10732;BME280;5417;42.686;23.244;2022-09-28T11:31:28;93274.78;;;23.08;nan
10732;BME280;5417;42.686;23.244;2022-09-28T11:34:15;93272.84;;;23.27;nan
10732;BME280;5417;42.686;23.244;2022-09-28T11:39:40;93284.56;;;23.61;nan
10732;BME280;5417;42.686;23.244;2022-09-28T11:42:20;93277.72;;;23.77;nan
10732;BME280;5417;42.686;23.244;2022-09-28T11:44:51;93279.91;;;24.03;nan
10732;BME280;5417;42.686;23.244;2022-09-28T11:47:47;93278.81;;;24.16;nan
10732;BME280;5417;42.686;23.244;2022-09-28T11:50:22;93271.31;;;24.13;nan
10732;BME280;5417;42.686;23.244;2022-09-28T11:52:58;93278.63;;;24.06;nan
10732;BME280;5417;42.686;23.244;2022-09-28T11:55:31;93275.03;;;23.88;nan
10732;BME280;5417;42.686;23.244;2022-09-28T11:58:04;93277.00;;;23.93;nan
10732;BME280;5417;42.686;23.244;2022-09-28T12:00:38;93269.03;;;24.05;nan
10732;BME280;5417;42.686;23.244;2022-09-28T12:03:13;93272.13;;;24.13;nan
10732;BME280;5417;42.686;23.244;2022-09-28T12:05:46;93270.03;;;24.27;nan
10732;BME280;5417;42.686;23.244;2022-09-28T12:08:17;93264.69;;;24.39;nan
10732;BME280;5417;42.686;23.244;2022-09-28T12:10:53;93267.00;;;24.35;nan
10732;BME280;5417;42.686;23.244;2022-09-28T12:13:25;93262.97;;;24.33;nan
10732;BME280;5417;42.686;23.244;2022-09-28T12:15:56;93265.47;;;24.39;nan
10732;BME280;5417;42.686;23.244;2022-09-28T12:18:37;93266.53;;;24.38;nan
10732;BME280;5417;42.686;23.244;2022-09-28T12:21:18;93265.72;;;24.38;nan
10732;BME280;5417;42.686;23.244;2022-09-28T12:23:48;93261.22;;;24.38;nan
10732;BME280;5417;42.686;23.244;2022-09-28T12:26:25;93272.66;;;24.39;nan
10732;BME280;5417;42.686;23.244;2022-09-28T12:28:57;93264.44;;;24.40;nan
10732;BME280;5417;42.686;23.244;2022-09-28T12:31:32;93263.53;;;24.46;nan
10732;BME280;5417;42.686;23.244;2022-09-28T12:34:01;93265.00;;;24.42;nan
10732;BME280;5417;42.686;23.244;2022-09-28T12:36:38;93272.09;;;24.37;nan
10732;BME280;5417;42.686;23.244;2022-09-28T12:39:23;93265.72;;;24.26;nan
10732;BME280;5417;42.686;23.244;2022-09-28T12:42:05;93263.44;;;24.30;nan
10732;BME280;5417;42.686;23.244;2022-09-28T12:44:49;93272.88;;;24.37;nan
10732;BME280;5417;42.686;23.244;2022-09-28T12:47:39;93262.59;;;24.41;nan
10732;BME280;5417;42.686;23.244;2022-09-28T12:50:18;93264.47;;;24.29;nan
10732;BME280;5417;42.686;23.244;2022-09-28T12:52:57;93270.25;;;24.26;nan
10732;BME280;5417;42.686;23.244;2022-09-28T12:55:41;93256.63;;;24.22;nan
10732;BME280;5417;42.686;23.244;2022-09-28T12:58:27;93258.59;;;24.15;nan
10732;BME280;5417;42.686;23.244;2022-09-28T13:01:04;93270.84;;;24.16;nan
10732;BME280;5417;42.686;23.244;2022-09-28T13:04:00;93264.19;;;24.02;nan
10732;BME280;5417;42.686;23.244;2022-09-28T13:06:46;93270.44;;;23.84;nan
10732;BME280;5417;42.686;23.244;2022-09-28T13:09:18;93257.97;;;23.61;nan
10732;BME280;5417;42.686;23.244;2022-09-28T13:12:02;93252.53;;;23.44;nan
10732;BME280;5417;42.686;23.244;2022-09-28T13:17:36;93263.03;;;23.39;nan
10732;BME280;5417;42.686;23.244;2022-09-28T13:20:16;93261.97;;;23.40;nan
10732;BME280;5417;42.686;23.244;2022-09-28T13:22:51;93270.41;;;23.37;nan
10732;BME280;5417;42.686;23.244;2022-09-28T13:25:23;93263.47;;;23.36;nan
10732;BME280;5417;42.686;23.244;2022-09-28T13:28:42;93272.16;;;23.43;nan
10732;BME280;5417;42.686;23.244;2022-09-28T13:31:02;93272.50;;;23.35;nan
10732;BME280;5417;42.686;23.244;2022-09-28T13:33:33;93277.78;;;23.35;nan
10732;BME280;5417;42.686;23.244;2022-09-28T13:36:01;93275.63;;;23.44;nan
10732;BME280;5417;42.686;23.244;2022-09-28T13:38:45;93278.16;;;23.39;nan
10732;BME280;5417;42.686;23.244;2022-09-28T13:41:19;93273.06;;;23.25;nan
10732;BME280;5417;42.686;23.244;2022-09-28T13:44:00;93252.41;;;23.16;nan
10732;BME280;5417;42.686;23.244;2022-09-28T13:46:35;93276.75;;;23.13;nan
10732;BME280;5417;42.686;23.244;2022-09-28T13:49:28;93269.00;;;23.11;nan
10732;BME280;5417;42.686;23.244;2022-09-28T13:52:03;93254.69;;;23.01;nan
10732;BME280;5417;42.686;23.244;2022-09-28T13:54:43;93268.56;;;23.14;nan
10732;BME280;5417;42.686;23.244;2022-09-28T13:57:20;93270.75;;;23.17;nan
10732;BME280;5417;42.686;23.244;2022-09-28T14:00:11;93273.97;;;23.08;nan
10732;BME280;5417;42.686;23.244;2022-09-28T14:02:57;93267.38;;;23.10;nan
10732;BME280;5417;42.686;23.244;2022-09-28T14:06:19;93262.53;;;22.95;nan
10732;BME280;5417;42.686;23.244;2022-09-28T14:08:37;93272.41;;;22.88;nan
10732;BME280;5417;42.686;23.244;2022-09-28T14:12:15;93260.78;;;22.89;nan
10732;BME280;5417;42.686;23.244;2022-09-28T14:14:47;93269.41;;;22.85;nan
10732;BME280;5417;42.686;23.244;2022-09-28T14:17:50;93266.75;;;22.85;nan